createdAt,value
2018-09-27T00:00:20.886Z,3.43
2018-09-27T00:02:49.295Z,3.40
2018-09-27T00:05:17.803Z,3.40
2018-09-27T00:07:46.412Z,3.80
2018-09-27T00:10:14.890Z,3.70
2018-09-27T00:12:43.270Z,3.60
2018-09-27T00:15:11.678Z,4.60
2018-09-27T00:17:40.082Z,4.33
2018-09-27T00:20:08.497Z,4.07
2018-09-27T00:22:36.964Z,4.33
2018-09-27T00:25:05.925Z,4.83
2018-09-27T00:27:34.328Z,4.10
2018-09-27T00:30:02.781Z,3.87
2018-09-27T00:32:31.188Z,4.13
2018-09-27T00:34:59.575Z,4.30
2018-09-27T00:37:28.048Z,4.03
2018-09-27T00:39:56.697Z,3.80
2018-09-27T00:42:25.178Z,3.90
2018-09-27T00:44:53.907Z,3.67
2018-09-27T00:47:22.403Z,4.00
2018-09-27T00:49:51.112Z,3.53
2018-09-27T00:52:19.583Z,3.57
2018-09-27T00:54:48.225Z,3.90
2018-09-27T00:57:16.744Z,3.97
2018-09-27T00:59:45.397Z,3.30
2018-09-27T01:02:13.898Z,4.23
2018-09-27T01:04:42.937Z,3.57
2018-09-27T01:07:11.440Z,3.73
2018-09-27T01:09:39.972Z,3.53
2018-09-27T01:12:08.484Z,3.70
2018-09-27T01:14:36.943Z,3.97
2018-09-27T01:17:05.408Z,4.00
2018-09-27T01:19:33.847Z,4.07
2018-09-27T01:22:02.283Z,3.90
2018-09-27T01:24:30.823Z,3.87
2018-09-27T01:26:59.229Z,3.40
2018-09-27T01:29:27.625Z,3.90
2018-09-27T01:31:56.030Z,4.10
2018-09-27T01:34:24.647Z,3.57
2018-09-27T01:36:53.077Z,4.00
2018-09-27T01:39:21.608Z,4.00
2018-09-27T01:41:50.019Z,3.73
2018-09-27T01:44:18.754Z,4.00
2018-09-27T01:46:47.189Z,4.47
2018-09-27T01:49:15.601Z,4.07
2018-09-27T01:51:44.511Z,4.07
2018-09-27T01:54:13.194Z,4.00
2018-09-27T01:56:41.593Z,4.10
2018-09-27T01:59:10.025Z,4.10
2018-09-27T02:01:38.430Z,3.93
2018-09-27T02:04:06.974Z,4.83
2018-09-27T02:06:35.455Z,4.23
2018-09-27T02:09:05.820Z,4.70
2018-09-27T02:11:34.243Z,4.73
2018-09-27T02:14:02.811Z,4.70
2018-09-27T02:16:31.296Z,4.93
2018-09-27T02:18:59.877Z,4.60
2018-09-27T02:21:28.300Z,4.50
2018-09-27T02:23:56.711Z,4.23
2018-09-27T02:26:25.354Z,4.70
2018-09-27T02:28:53.948Z,4.47
2018-09-27T02:31:22.467Z,5.20
2018-09-27T02:33:50.855Z,5.43
2018-09-27T02:36:19.326Z,5.23
2018-09-27T02:38:47.723Z,5.47
2018-09-27T02:41:16.151Z,4.93
2018-09-27T02:43:44.541Z,5.20
2018-09-27T02:46:12.959Z,5.07
2018-09-27T02:48:41.951Z,4.70
2018-09-27T02:51:10.516Z,4.67
2018-09-27T02:53:39.206Z,5.00
2018-09-27T02:56:07.623Z,5.30
2018-09-27T02:58:36.038Z,4.50
2018-09-27T03:01:04.481Z,4.20
2018-09-27T03:03:32.892Z,4.37
2018-09-27T03:06:01.317Z,4.63
2018-09-27T03:08:29.731Z,4.30
2018-09-27T03:10:58.104Z,4.50
2018-09-27T03:13:26.485Z,4.30
2018-09-27T03:15:54.893Z,4.73
2018-09-27T03:18:23.400Z,5.00
2018-09-27T03:20:51.972Z,4.67
2018-09-27T03:23:20.543Z,4.50
2018-09-27T03:25:49.201Z,5.30
2018-09-27T03:28:18.822Z,4.60
2018-09-27T03:30:47.705Z,4.97
2018-09-27T03:33:16.227Z,4.43
2018-09-27T03:35:46.919Z,5.60
2018-09-27T03:38:15.525Z,4.90
2018-09-27T03:40:44.252Z,4.97
2018-09-27T03:43:12.577Z,4.70
2018-09-27T03:45:41.003Z,4.53
2018-09-27T03:48:09.505Z,4.40
2018-09-27T03:50:37.910Z,4.33
2018-09-27T03:53:06.467Z,4.60
2018-09-27T03:55:34.903Z,5.27
2018-09-27T03:58:03.342Z,4.17
2018-09-27T04:00:31.756Z,4.17
2018-09-27T04:03:00.396Z,4.60
2018-09-27T04:05:28.797Z,3.93
2018-09-27T04:07:57.237Z,5.17
2018-09-27T04:10:25.647Z,5.43
2018-09-27T04:12:54.107Z,5.87
2018-09-27T04:15:22.856Z,4.93
2018-09-27T04:17:51.255Z,5.07
2018-09-27T04:20:19.786Z,5.50
2018-09-27T04:22:48.199Z,5.30
2018-09-27T04:25:16.601Z,4.93
2018-09-27T04:27:45.148Z,5.77
2018-09-27T04:30:13.643Z,5.17
2018-09-27T04:32:42.064Z,5.00
2018-09-27T04:35:10.592Z,4.70
2018-09-27T04:37:39.105Z,4.60
2018-09-27T04:40:07.636Z,5.13
2018-09-27T04:42:36.144Z,5.13
2018-09-27T04:45:04.927Z,5.07
2018-09-27T04:47:33.337Z,5.20
2018-09-27T04:50:01.746Z,5.17
2018-09-27T04:52:30.168Z,5.10
2018-09-27T04:54:58.792Z,5.37
2018-09-27T04:57:27.257Z,5.53
2018-09-27T04:59:55.698Z,4.97
2018-09-27T05:02:24.114Z,5.07
2018-09-27T05:04:52.555Z,5.20
2018-09-27T05:07:20.962Z,5.60
2018-09-27T05:09:49.374Z,5.07
2018-09-27T05:12:18.505Z,5.63
2018-09-27T05:14:46.950Z,6.00
2018-09-27T05:17:15.363Z,5.20
2018-09-27T05:19:43.881Z,5.30
2018-09-27T05:22:12.270Z,5.40
2018-09-27T05:24:40.686Z,5.30
2018-09-27T05:27:09.449Z,5.70
2018-09-27T05:29:37.821Z,5.10
2018-09-27T05:32:06.564Z,5.63
2018-09-27T05:34:35.000Z,5.07
2018-09-27T05:37:03.416Z,5.30
2018-09-27T05:39:31.842Z,5.27
2018-09-27T05:42:00.386Z,4.87
2018-09-27T05:44:28.848Z,4.70
2018-09-27T05:46:57.269Z,4.87
2018-09-27T05:49:25.784Z,4.73
2018-09-27T05:51:54.185Z,5.07
2018-09-27T05:54:22.610Z,5.57
2018-09-27T05:56:51.123Z,5.67
2018-09-27T05:59:19.646Z,6.13
2018-09-27T06:01:48.093Z,5.50
2018-09-27T06:04:16.622Z,6.07
2018-09-27T06:06:45.071Z,6.50
2018-09-27T06:09:13.624Z,6.70
2018-09-27T06:11:42.531Z,6.90
2018-09-27T06:14:10.945Z,6.50
2018-09-27T06:16:39.605Z,6.53
2018-09-27T06:19:08.836Z,7.73
2018-09-27T06:21:37.879Z,7.37
2018-09-27T06:24:06.547Z,6.37
2018-09-27T06:26:35.061Z,6.80
2018-09-27T06:29:03.837Z,7.03
2018-09-27T06:31:32.299Z,7.33
2018-09-27T06:34:00.775Z,6.90
2018-09-27T06:36:29.211Z,7.00
2018-09-27T06:38:57.640Z,6.97
2018-09-27T06:41:26.468Z,7.57
2018-09-27T06:43:54.823Z,6.93
2018-09-27T06:46:23.366Z,7.20
2018-09-27T06:48:51.876Z,7.63
2018-09-27T06:51:20.248Z,7.20
2018-09-27T06:53:48.667Z,8.03
2018-09-27T06:56:17.174Z,9.43
2018-09-27T06:58:45.525Z,9.77
2018-09-27T07:01:13.936Z,8.87
2018-09-27T07:03:42.362Z,9.00
2018-09-27T07:06:10.773Z,8.63
2018-09-27T07:08:39.225Z,7.73
2018-09-27T07:11:07.647Z,8.13
2018-09-27T07:13:36.091Z,8.80
2018-09-27T07:16:04.499Z,8.10
2018-09-27T07:18:33.170Z,7.60
2018-09-27T07:21:01.639Z,7.87
2018-09-27T07:23:30.053Z,8.27
2018-09-27T07:25:58.451Z,8.33
2018-09-27T07:28:26.865Z,8.00
2018-09-27T07:30:55.349Z,8.33
2018-09-27T07:33:23.830Z,8.00
2018-09-27T07:35:52.285Z,8.13
2018-09-27T07:38:20.716Z,8.77
2018-09-27T07:40:49.121Z,10.93
2018-09-27T07:43:17.693Z,33.47
2018-09-27T07:45:46.114Z,60.87
2018-09-27T07:48:14.540Z,65.60
2018-09-27T07:50:43.003Z,59.70
2018-09-27T07:53:11.429Z,47.97
2018-09-27T07:55:39.986Z,33.90
2018-09-27T07:58:08.752Z,16.60
2018-09-27T08:00:40.291Z,12.83
2018-09-27T08:03:09.211Z,8.60
2018-09-27T08:05:38.078Z,8.03
2018-09-27T08:08:06.836Z,7.20
2018-09-27T08:10:35.381Z,6.70
2018-09-27T08:13:03.817Z,7.20
2018-09-27T08:15:32.227Z,7.43
2018-09-27T08:18:00.657Z,6.90
2018-09-27T08:20:29.087Z,6.77
2018-09-27T08:22:57.669Z,5.80
2018-09-27T08:25:26.172Z,5.83
2018-09-27T08:27:54.681Z,5.07
2018-09-27T08:30:23.534Z,4.83
2018-09-27T08:32:52.004Z,5.00
2018-09-27T08:35:20.448Z,5.47
2018-09-27T08:37:48.916Z,4.78
2018-09-27T08:40:17.417Z,5.75
2018-09-27T08:42:45.819Z,6.20
2018-09-27T08:45:14.550Z,5.97
2018-09-27T08:47:42.795Z,6.53
2018-09-27T08:50:11.235Z,6.40
2018-09-27T08:52:40.217Z,5.35
2018-09-27T08:55:08.675Z,4.65
2018-09-27T08:57:37.185Z,5.05
2018-09-27T09:00:06.008Z,4.72
2018-09-27T09:02:34.459Z,4.85
2018-09-27T09:05:02.917Z,4.58
2018-09-27T09:07:31.394Z,4.72
2018-09-27T09:09:59.798Z,4.30
2018-09-27T09:12:28.232Z,4.00
2018-09-27T09:14:56.687Z,4.35
2018-09-27T09:17:25.239Z,4.08
2018-09-27T09:19:53.670Z,3.98
2018-09-27T09:22:22.127Z,3.35
2018-09-27T09:24:50.672Z,3.72
2018-09-27T09:27:19.070Z,3.65
2018-09-27T09:29:47.650Z,3.60
2018-09-27T09:32:16.304Z,3.47
2018-09-27T09:34:44.822Z,4.20
2018-09-27T09:37:13.262Z,3.27
2018-09-27T09:39:41.769Z,3.40
2018-09-27T09:42:10.191Z,3.37
2018-09-27T09:44:38.604Z,3.47
2018-09-27T09:47:07.225Z,3.17
2018-09-27T09:49:35.636Z,3.20
2018-09-27T09:52:04.167Z,3.50
2018-09-27T09:54:32.584Z,3.30
2018-09-27T09:57:01.017Z,3.25
2018-09-27T09:59:29.656Z,2.85
2018-09-27T10:01:58.059Z,3.47
2018-09-27T10:04:26.527Z,3.40
2018-09-27T10:06:54.957Z,3.37
2018-09-27T10:09:23.498Z,3.37
2018-09-27T10:11:51.921Z,3.37
2018-09-27T10:14:20.337Z,3.10
2018-09-27T10:16:48.742Z,3.10
2018-09-27T10:19:17.153Z,2.90
2018-09-27T10:21:45.684Z,3.25
2018-09-27T10:24:14.211Z,2.92
2018-09-27T10:26:42.631Z,3.00
2018-09-27T10:29:11.036Z,3.17
2018-09-27T10:31:39.615Z,2.87
2018-09-27T10:34:08.082Z,2.70
2018-09-27T10:36:36.563Z,2.70
2018-09-27T10:39:07.672Z,2.67
2018-09-27T10:41:36.076Z,2.60
2018-09-27T10:44:04.543Z,2.62
2018-09-27T10:46:33.059Z,2.80
2018-09-27T10:49:01.478Z,2.52
2018-09-27T10:51:29.950Z,2.33
2018-09-27T10:53:58.348Z,2.35
2018-09-27T10:56:26.781Z,2.12
2018-09-27T10:58:55.197Z,2.25
2018-09-27T11:01:23.628Z,3.20
2018-09-27T11:03:52.036Z,3.27
2018-09-27T11:06:20.450Z,4.05
2018-09-27T11:08:48.877Z,4.47
2018-09-27T11:11:17.301Z,3.80
2018-09-27T11:13:45.714Z,3.15
2018-09-27T11:16:14.148Z,2.70
2018-09-27T11:18:42.591Z,2.60
2018-09-27T11:21:11.016Z,2.67
2018-09-27T11:23:39.429Z,3.35
2018-09-27T11:26:07.909Z,2.60
2018-09-27T11:28:41.732Z,2.47
2018-09-27T11:31:15.301Z,2.52
2018-09-27T11:33:43.707Z,2.65
2018-09-27T11:36:12.545Z,2.55
2018-09-27T11:38:40.966Z,2.58
2018-09-27T11:41:09.343Z,2.58
2018-09-27T11:43:37.741Z,2.40
2018-09-27T11:46:06.177Z,2.92
2018-09-27T11:48:34.591Z,2.70
2018-09-27T11:51:03.069Z,2.58
2018-09-27T11:53:31.548Z,2.83
2018-09-27T11:56:00.050Z,3.00
2018-09-27T11:58:28.441Z,2.72
2018-09-27T12:00:56.906Z,2.80
2018-09-27T12:03:25.413Z,2.55
2018-09-27T12:05:53.850Z,2.40
2018-09-27T12:08:22.315Z,2.60
2018-09-27T12:10:51.295Z,2.72
2018-09-27T12:13:19.741Z,2.70
2018-09-27T12:15:48.136Z,2.70
2018-09-27T12:18:16.564Z,2.90
2018-09-27T12:20:44.982Z,3.00
2018-09-27T12:23:13.401Z,3.05
2018-09-27T12:25:41.921Z,3.00
2018-09-27T12:28:10.310Z,3.12
2018-09-27T12:30:38.751Z,2.95
2018-09-27T12:33:07.303Z,2.98
2018-09-27T12:35:35.748Z,3.50
2018-09-27T12:38:04.170Z,2.92
2018-09-27T12:40:33.558Z,3.50
2018-09-27T12:43:02.070Z,3.60
2018-09-27T12:45:30.606Z,3.30
2018-09-27T12:47:59.054Z,3.33
2018-09-27T12:50:27.531Z,3.52
2018-09-27T12:52:56.028Z,3.58
2018-09-27T12:55:24.383Z,3.20
2018-09-27T12:57:52.840Z,3.52
2018-09-27T13:00:21.264Z,3.30
2018-09-27T13:02:49.800Z,3.27
2018-09-27T13:05:18.103Z,3.83
2018-09-27T13:07:46.495Z,3.45
2018-09-27T13:10:14.975Z,3.70
2018-09-27T13:12:43.395Z,4.05
2018-09-27T13:15:11.908Z,3.55
2018-09-27T13:17:40.346Z,3.70
2018-09-27T13:20:09.111Z,3.52
2018-09-27T13:22:38.420Z,3.37
2018-09-27T13:25:06.954Z,3.33
2018-09-27T13:27:35.478Z,3.77
2018-09-27T13:30:04.337Z,3.83
2018-09-27T13:32:32.748Z,3.20
2018-09-27T13:35:01.177Z,3.80
2018-09-27T13:37:29.655Z,3.52
2018-09-27T13:39:58.183Z,3.02
2018-09-27T13:42:26.691Z,3.37
2018-09-27T13:44:55.157Z,3.35
2018-09-27T13:47:23.573Z,2.50
2018-09-27T13:49:51.983Z,2.60
2018-09-27T13:52:20.393Z,2.80
2018-09-27T13:54:48.797Z,2.67
2018-09-27T13:57:17.329Z,2.35
2018-09-27T13:59:45.711Z,2.80
2018-09-27T14:02:14.123Z,3.00
2018-09-27T14:04:42.556Z,2.90
2018-09-27T14:07:10.999Z,2.77
2018-09-27T14:09:39.442Z,2.45
2018-09-27T14:12:07.872Z,2.22
2018-09-27T14:14:36.646Z,2.35
2018-09-27T14:17:05.198Z,2.52
2018-09-27T14:19:33.557Z,2.55
2018-09-27T14:22:02.062Z,2.40
2018-09-27T14:24:30.511Z,2.67
2018-09-27T14:26:58.977Z,2.50
2018-09-27T14:29:27.392Z,2.20
2018-09-27T14:31:55.786Z,2.37
2018-09-27T14:34:24.224Z,2.70
2018-09-27T14:36:52.637Z,2.05
2018-09-27T14:39:21.184Z,1.90
2018-09-27T14:41:49.584Z,2.27
2018-09-27T14:44:18.000Z,2.12
2018-09-27T14:46:46.528Z,2.00
2018-09-27T14:49:14.940Z,2.12
2018-09-27T14:51:43.368Z,2.37
2018-09-27T14:54:11.867Z,2.25
2018-09-27T14:56:40.304Z,2.10
2018-09-27T14:59:08.749Z,2.35
2018-09-27T15:01:37.186Z,2.10
2018-09-27T15:04:05.895Z,2.10
2018-09-27T15:06:34.530Z,1.80
2018-09-27T15:09:02.948Z,1.80
2018-09-27T15:11:31.381Z,2.37
2018-09-27T15:13:59.816Z,1.87
2018-09-27T15:16:28.419Z,1.80
2018-09-27T15:18:56.931Z,2.20
2018-09-27T15:21:25.428Z,1.85
2018-09-27T15:23:54.009Z,1.75
2018-09-27T15:26:22.473Z,1.98
2018-09-27T15:28:50.935Z,2.60
2018-09-27T15:31:19.386Z,2.10
2018-09-27T15:33:47.852Z,2.85
2018-09-27T15:36:16.292Z,2.65
2018-09-27T15:38:44.703Z,2.15
2018-09-27T15:41:13.122Z,2.30
2018-09-27T15:43:41.528Z,2.40
2018-09-27T15:46:09.943Z,2.15
2018-09-27T15:48:38.523Z,2.60
2018-09-27T15:51:07.048Z,2.55
2018-09-27T15:53:35.520Z,2.60
2018-09-27T15:56:03.994Z,2.35
2018-09-27T15:58:33.172Z,2.30
2018-09-27T16:01:01.679Z,2.60
2018-09-27T16:03:30.111Z,2.90
2018-09-27T16:05:59.466Z,2.75
2018-09-27T16:08:27.891Z,2.12
2018-09-27T16:10:56.430Z,2.22
2018-09-27T16:13:24.996Z,3.00
2018-09-27T16:15:53.432Z,2.87
2018-09-27T16:18:21.980Z,3.00
2018-09-27T16:20:50.415Z,3.00
2018-09-27T16:23:18.849Z,3.05
2018-09-27T16:25:47.284Z,3.22
2018-09-27T16:28:15.732Z,3.05
2018-09-27T16:30:44.145Z,2.75
2018-09-27T16:33:12.708Z,2.90
2018-09-27T16:35:41.256Z,3.15
2018-09-27T16:38:09.656Z,3.12
2018-09-27T16:40:38.113Z,2.72
2018-09-27T16:43:07.257Z,2.85
2018-09-27T16:45:35.746Z,3.00
2018-09-27T16:48:04.319Z,3.22
2018-09-27T16:50:32.814Z,2.70
2018-09-27T16:53:01.351Z,2.75
2018-09-27T16:55:29.794Z,3.00
2018-09-27T16:57:58.232Z,3.20
2018-09-27T17:00:26.801Z,3.12
2018-09-27T17:02:55.611Z,2.85
2018-09-27T17:05:24.088Z,3.55
2018-09-27T17:07:52.506Z,2.47
2018-09-27T17:10:20.931Z,2.55
2018-09-27T17:12:49.320Z,3.08
2018-09-27T17:15:17.780Z,2.37
2018-09-27T17:17:46.360Z,3.00
2018-09-27T17:20:14.744Z,2.30
2018-09-27T17:22:43.349Z,2.62
2018-09-27T17:25:11.747Z,2.40
2018-09-27T17:27:40.202Z,2.60
2018-09-27T17:30:08.795Z,2.53
2018-09-27T17:32:37.277Z,2.60
2018-09-27T17:35:05.816Z,3.10
2018-09-27T17:37:34.311Z,2.70
2018-09-27T17:40:03.309Z,2.77
2018-09-27T17:42:31.767Z,2.50
2018-09-27T17:45:00.311Z,2.57
2018-09-27T17:47:28.717Z,2.80
2018-09-27T17:49:57.252Z,2.63
2018-09-27T17:52:25.665Z,2.90
2018-09-27T17:54:54.097Z,3.13
2018-09-27T17:57:23.494Z,2.80
2018-09-27T17:59:54.143Z,3.63
2018-09-27T18:02:23.347Z,3.80
2018-09-27T18:04:51.888Z,4.70
2018-09-27T18:07:20.575Z,4.30
2018-09-27T18:09:49.284Z,4.93
2018-09-27T18:12:17.751Z,5.63
2018-09-27T18:14:46.193Z,8.20
2018-09-27T18:17:14.664Z,7.57
2018-09-27T18:19:43.281Z,6.80
2018-09-27T18:22:11.659Z,5.90
2018-09-27T18:24:40.090Z,5.50
2018-09-27T18:27:08.602Z,5.43
2018-09-27T18:29:37.022Z,4.90
2018-09-27T18:32:05.601Z,5.13
2018-09-27T18:34:34.215Z,4.33
2018-09-27T18:37:02.639Z,5.00
2018-09-27T18:39:31.059Z,4.73
2018-09-27T18:41:59.469Z,4.97
2018-09-27T18:44:27.944Z,4.90
2018-09-27T18:46:56.350Z,5.43
2018-09-27T18:49:24.871Z,6.73
2018-09-27T18:51:53.354Z,7.40
2018-09-27T18:54:21.776Z,7.00
2018-09-27T18:56:50.322Z,5.90
2018-09-27T18:59:18.772Z,4.80
2018-09-27T19:01:47.228Z,4.87
2018-09-27T19:04:15.811Z,4.83
2018-09-27T19:06:44.224Z,4.20
2018-09-27T19:09:14.105Z,4.30
2018-09-27T19:11:42.515Z,4.63
2018-09-27T19:14:10.955Z,5.20
2018-09-27T19:16:39.388Z,5.80
2018-09-27T19:19:07.864Z,6.30
2018-09-27T19:21:36.292Z,6.50
2018-09-27T19:24:04.702Z,6.13
2018-09-27T19:26:33.100Z,5.77
2018-09-27T19:29:01.683Z,6.10
2018-09-27T19:31:30.107Z,4.90
2018-09-27T19:33:58.651Z,5.10
2018-09-27T19:36:27.303Z,5.23
2018-09-27T19:38:55.744Z,6.10
2018-09-27T19:41:24.176Z,6.07
2018-09-27T19:43:52.741Z,5.43
2018-09-27T19:46:21.167Z,4.77
2018-09-27T19:48:49.684Z,4.97
2018-09-27T19:51:18.178Z,4.80
2018-09-27T19:53:46.684Z,4.77
2018-09-27T19:56:15.302Z,5.00
2018-09-27T19:58:43.721Z,4.77
2018-09-27T20:01:12.148Z,4.73
2018-09-27T20:03:40.585Z,5.60
2018-09-27T20:06:09.042Z,6.30
2018-09-27T20:08:37.538Z,5.93
2018-09-27T20:11:06.225Z,5.50
2018-09-27T20:13:34.650Z,5.37
2018-09-27T20:16:03.964Z,4.63
2018-09-27T20:18:32.383Z,5.70
2018-09-27T20:21:01.246Z,5.20
2018-09-27T20:23:29.724Z,5.50
2018-09-27T20:25:58.313Z,4.97
2018-09-27T20:28:26.794Z,5.07
2018-09-27T20:30:55.322Z,5.73
2018-09-27T20:33:23.854Z,7.27
2018-09-27T20:35:52.277Z,7.00
2018-09-27T20:38:20.701Z,5.03
2018-09-27T20:40:49.114Z,4.20
2018-09-27T20:43:17.549Z,4.50
2018-09-27T20:45:45.979Z,4.07
2018-09-27T20:48:14.565Z,4.63
2018-09-27T20:50:45.879Z,4.20
2018-09-27T20:53:16.094Z,4.50
2018-09-27T20:55:46.226Z,4.73
2018-09-27T20:58:16.231Z,5.10
2018-09-27T21:00:46.112Z,5.17
2018-09-27T21:03:15.152Z,5.57
2018-09-27T21:05:44.499Z,5.20
2018-09-27T21:08:20.272Z,4.80
2018-09-27T21:10:53.346Z,5.50
2018-09-27T21:13:24.373Z,4.90
2018-09-27T21:15:54.977Z,5.80
2018-09-27T21:18:25.641Z,6.20
2018-09-27T21:20:55.543Z,6.13
2018-09-27T21:23:29.600Z,6.63
2018-09-27T21:26:00.490Z,6.27
2018-09-27T21:28:29.015Z,5.80
2018-09-27T21:30:57.447Z,4.97
2018-09-27T21:33:26.027Z,5.53
2018-09-27T21:35:55.056Z,5.73
2018-09-27T21:38:23.468Z,5.97
2018-09-27T21:40:52.010Z,6.03
2018-09-27T21:43:20.618Z,5.33
2018-09-27T21:45:48.974Z,5.50
2018-09-27T21:48:17.371Z,5.73
2018-09-27T21:50:45.861Z,6.20
2018-09-27T21:53:14.298Z,6.53
2018-09-27T21:55:42.736Z,6.73
2018-09-27T21:58:11.164Z,6.93
2018-09-27T22:00:39.625Z,7.07
2018-09-27T22:03:08.027Z,7.07
2018-09-27T22:05:36.558Z,7.47
2018-09-27T22:08:04.965Z,6.50
2018-09-27T22:10:33.363Z,6.97
2018-09-27T22:13:01.753Z,6.90
2018-09-27T22:15:30.168Z,6.27
2018-09-27T22:17:58.581Z,5.60
2018-09-27T22:20:26.999Z,6.07
2018-09-27T22:22:55.500Z,6.00
2018-09-27T22:25:23.902Z,6.13
2018-09-27T22:27:52.531Z,6.97
2018-09-27T22:30:20.963Z,6.37
2018-09-27T22:32:49.452Z,6.13
2018-09-27T22:35:18.003Z,8.67
2018-09-27T22:37:46.446Z,8.30
2018-09-27T22:40:14.867Z,8.10
2018-09-27T22:42:43.436Z,8.63
2018-09-27T22:45:11.991Z,9.67
2018-09-27T22:47:40.395Z,8.67
2018-09-27T22:50:08.924Z,7.00
2018-09-27T22:52:38.144Z,6.87
2018-09-27T22:55:06.609Z,6.80
2018-09-27T22:57:35.049Z,6.20
2018-09-27T23:00:03.515Z,5.87
2018-09-27T23:02:31.948Z,6.60
2018-09-27T23:05:00.387Z,6.13
2018-09-27T23:07:28.784Z,6.00
2018-09-27T23:09:57.336Z,5.87
2018-09-27T23:12:25.757Z,6.20
2018-09-27T23:14:54.220Z,6.33
2018-09-27T23:17:22.631Z,5.77
2018-09-27T23:19:51.110Z,6.40
2018-09-27T23:22:19.514Z,5.97
2018-09-27T23:24:47.919Z,6.40
2018-09-27T23:27:16.377Z,6.20
2018-09-27T23:29:44.786Z,6.30
2018-09-27T23:32:13.308Z,6.90
2018-09-27T23:34:41.793Z,5.87
2018-09-27T23:37:10.230Z,6.60
2018-09-27T23:39:38.635Z,7.30
2018-09-27T23:42:07.084Z,6.43
2018-09-27T23:44:35.595Z,6.57
2018-09-27T23:47:04.015Z,7.03
2018-09-27T23:49:33.307Z,7.63
2018-09-27T23:52:01.747Z,6.80
2018-09-27T23:54:30.308Z,7.40
2018-09-27T23:56:58.712Z,6.97
2018-09-27T23:59:27.226Z,6.87
